createdAt,value
2019-01-08T00:00:48.025Z,977.8
2019-01-08T00:01:49.301Z,977.8
2019-01-08T00:02:50.602Z,977.7
2019-01-08T00:03:51.957Z,977.6
2019-01-08T00:04:53.262Z,977.6
2019-01-08T00:05:54.798Z,977.5
2019-01-08T00:06:56.105Z,977.6
2019-01-08T00:07:57.532Z,977.6
2019-01-08T00:08:58.874Z,977.5
2019-01-08T00:10:00.298Z,977.4
2019-01-08T00:11:01.668Z,977.6
2019-01-08T00:12:02.964Z,977.6
2019-01-08T00:13:04.284Z,977.5
2019-01-08T00:14:05.649Z,977.5
2019-01-08T00:15:07.093Z,977.5
2019-01-08T00:16:08.739Z,977.6
2019-01-08T00:17:10.025Z,977.5
2019-01-08T00:18:11.298Z,977.5
2019-01-08T00:19:12.608Z,977.5
2019-01-08T00:20:16.220Z,977.4
2019-01-08T00:21:17.516Z,977.4
2019-01-08T00:22:18.801Z,977.4
2019-01-08T00:23:22.485Z,977.3
2019-01-08T00:24:23.797Z,977.5
2019-01-08T00:25:25.061Z,977.4
2019-01-08T00:26:26.362Z,977.4
2019-01-08T00:27:27.657Z,977.4
2019-01-08T00:28:28.961Z,977.4
2019-01-08T00:29:30.292Z,977.3
2019-01-08T00:30:31.578Z,977.3
2019-01-08T00:31:32.904Z,977.4
2019-01-08T00:32:34.404Z,977.3
2019-01-08T00:33:35.708Z,977.3
2019-01-08T00:34:37.045Z,977.2
2019-01-08T00:35:38.354Z,977.2
2019-01-08T00:36:39.645Z,977.2
2019-01-08T00:37:40.990Z,977.1
2019-01-08T00:38:42.275Z,977
2019-01-08T00:39:43.688Z,977.1
2019-01-08T00:40:44.972Z,977.2
2019-01-08T00:41:46.297Z,977.2
2019-01-08T00:42:47.687Z,977.2
2019-01-08T00:43:48.964Z,977.1
2019-01-08T00:44:50.342Z,977
2019-01-08T00:45:51.636Z,977.1
2019-01-08T00:46:52.917Z,976.9
2019-01-08T00:47:54.211Z,976.9
2019-01-08T00:48:55.513Z,976.9
2019-01-08T00:49:56.865Z,976.9
2019-01-08T00:50:58.168Z,976.9
2019-01-08T00:51:59.477Z,976.8
2019-01-08T00:53:00.781Z,976.8
2019-01-08T00:54:02.051Z,976.8
2019-01-08T00:55:03.399Z,976.8
2019-01-08T00:56:04.696Z,976.8
2019-01-08T00:57:06.027Z,976.8
2019-01-08T00:58:07.312Z,976.7
2019-01-08T00:59:08.638Z,976.7
2019-01-08T01:00:09.996Z,976.7
2019-01-08T01:01:14.294Z,976.5
2019-01-08T01:02:15.560Z,976.7
2019-01-08T01:03:17.050Z,976.6
2019-01-08T01:04:18.339Z,976.6
2019-01-08T01:05:19.661Z,976.7
2019-01-08T01:06:20.976Z,976.7
2019-01-08T01:07:22.280Z,976.6
2019-01-08T01:08:23.552Z,976.6
2019-01-08T01:09:24.865Z,976.6
2019-01-08T01:10:26.881Z,976.6
2019-01-08T01:11:28.201Z,976.7
2019-01-08T01:12:29.477Z,976.8
2019-01-08T01:13:30.789Z,976.7
2019-01-08T01:14:32.173Z,976.8
2019-01-08T01:15:33.476Z,976.8
2019-01-08T01:16:34.762Z,976.7
2019-01-08T01:17:36.085Z,976.7
2019-01-08T01:18:37.367Z,976.8
2019-01-08T01:19:38.669Z,976.7
2019-01-08T01:20:39.963Z,976.7
2019-01-08T01:21:41.263Z,976.7
2019-01-08T01:22:42.561Z,976.6
2019-01-08T01:23:43.947Z,976.6
2019-01-08T01:24:45.241Z,976.7
2019-01-08T01:25:46.581Z,976.8
2019-01-08T01:26:47.844Z,976.8
2019-01-08T01:27:49.196Z,976.8
2019-01-08T01:28:50.571Z,976.8
2019-01-08T01:29:51.851Z,976.7
2019-01-08T01:30:53.182Z,976.9
2019-01-08T01:31:54.455Z,976.7
2019-01-08T01:32:55.762Z,976.7
2019-01-08T01:33:57.072Z,976.7
2019-01-08T01:34:58.350Z,976.6
2019-01-08T01:35:59.684Z,976.7
2019-01-08T01:37:00.982Z,976.7
2019-01-08T01:38:02.255Z,976.7
2019-01-08T01:39:03.912Z,976.6
2019-01-08T01:40:05.206Z,976.6
2019-01-08T01:41:07.036Z,976.7
2019-01-08T01:42:08.324Z,976.6
2019-01-08T01:43:09.642Z,976.6
2019-01-08T01:44:10.951Z,976.5
2019-01-08T01:45:12.217Z,976.6
2019-01-08T01:46:13.588Z,976.7
2019-01-08T01:47:14.927Z,976.7
2019-01-08T01:48:16.272Z,976.7
2019-01-08T01:49:17.546Z,976.6
2019-01-08T01:50:18.835Z,976.6
2019-01-08T01:51:20.216Z,976.5
2019-01-08T01:52:21.489Z,976.5
2019-01-08T01:53:22.764Z,976.5
2019-01-08T01:54:24.043Z,976.6
2019-01-08T01:55:25.326Z,976.5
2019-01-08T01:56:26.682Z,976.5
2019-01-08T01:57:27.988Z,976.4
2019-01-08T01:58:29.249Z,976.5
2019-01-08T01:59:30.525Z,976.5
2019-01-08T02:00:31.852Z,976.5
2019-01-08T02:01:33.184Z,976.4
2019-01-08T02:02:34.931Z,976.4
2019-01-08T02:03:36.240Z,976.3
2019-01-08T02:04:37.629Z,976.3
2019-01-08T02:05:38.901Z,976.3
2019-01-08T02:06:40.353Z,976.3
2019-01-08T02:07:44.028Z,976.3
2019-01-08T02:08:45.404Z,976.3
2019-01-08T02:09:46.684Z,976.3
2019-01-08T02:10:47.986Z,976.3
2019-01-08T02:11:49.314Z,976.5
2019-01-08T02:12:50.630Z,976.4
2019-01-08T02:13:51.895Z,976.5
2019-01-08T02:14:53.175Z,976.5
2019-01-08T02:15:54.440Z,976.4
2019-01-08T02:16:55.760Z,976.4
2019-01-08T02:17:57.033Z,976.5
2019-01-08T02:18:58.333Z,976.5
2019-01-08T02:19:59.638Z,976.4
2019-01-08T02:21:01.021Z,976.4
2019-01-08T02:22:02.387Z,976.3
2019-01-08T02:23:03.685Z,976.3
2019-01-08T02:24:05.006Z,976.3
2019-01-08T02:25:06.276Z,976.3
2019-01-08T02:26:07.630Z,976.3
2019-01-08T02:27:09.300Z,976.3
2019-01-08T02:28:10.576Z,976.4
2019-01-08T02:29:17.318Z,976.3
2019-01-08T02:30:18.623Z,976.3
2019-01-08T02:31:19.926Z,976.2
2019-01-08T02:32:22.799Z,976.2
2019-01-08T02:33:24.091Z,976.3
2019-01-08T02:34:25.397Z,976.3
2019-01-08T02:35:26.727Z,976.2
2019-01-08T02:36:28.323Z,976.2
2019-01-08T02:37:29.664Z,976.3
2019-01-08T02:38:30.944Z,976.3
2019-01-08T02:39:32.321Z,976.3
2019-01-08T02:40:33.612Z,976.2
2019-01-08T02:41:35.442Z,976.3
2019-01-08T02:42:37.101Z,976.2
2019-01-08T02:43:38.404Z,976.2
2019-01-08T02:44:40.037Z,976.2
2019-01-08T02:45:41.364Z,976.3
2019-01-08T02:46:43.171Z,976.2
2019-01-08T02:47:44.517Z,976.2
2019-01-08T02:48:45.810Z,976.1
2019-01-08T02:49:47.087Z,976.1
2019-01-08T02:50:48.379Z,976.1
2019-01-08T02:51:49.670Z,976
2019-01-08T02:52:51.297Z,975.9
2019-01-08T02:53:52.578Z,975.9
2019-01-08T02:54:53.852Z,976.1
2019-01-08T02:55:55.112Z,976
2019-01-08T02:56:56.392Z,976
2019-01-08T02:57:57.714Z,975.9
2019-01-08T02:58:58.992Z,975.9
2019-01-08T03:00:00.341Z,975.9
2019-01-08T03:01:01.621Z,975.8
2019-01-08T03:02:03.261Z,975.9
2019-01-08T03:03:04.617Z,975.9
2019-01-08T03:04:05.906Z,975.8
2019-01-08T03:05:07.176Z,975.8
2019-01-08T03:06:08.487Z,975.8
2019-01-08T03:07:09.776Z,975.7
2019-01-08T03:08:11.179Z,975.7
2019-01-08T03:09:12.513Z,975.7
2019-01-08T03:10:13.805Z,975.8
2019-01-08T03:11:15.093Z,975.7
2019-01-08T03:12:16.381Z,975.7
2019-01-08T03:13:17.718Z,975.7
2019-01-08T03:14:19.028Z,975.6
2019-01-08T03:15:20.305Z,975.6
2019-01-08T03:16:21.615Z,975.7
2019-01-08T03:17:22.875Z,975.7
2019-01-08T03:18:24.175Z,975.6
2019-01-08T03:19:25.500Z,975.6
2019-01-08T03:20:26.812Z,975.5
2019-01-08T03:21:28.085Z,975.5
2019-01-08T03:22:29.381Z,975.5
2019-01-08T03:23:30.735Z,975.5
2019-01-08T03:24:32.071Z,975.5
2019-01-08T03:25:33.361Z,975.5
2019-01-08T03:26:34.637Z,975.5
2019-01-08T03:27:35.937Z,975.4
2019-01-08T03:28:37.244Z,975.5
2019-01-08T03:29:38.572Z,975.5
2019-01-08T03:30:39.916Z,975.5
2019-01-08T03:31:41.194Z,975.5
2019-01-08T03:32:42.475Z,975.5
2019-01-08T03:33:43.832Z,975.4
2019-01-08T03:34:45.140Z,975.4
2019-01-08T03:35:46.435Z,975.3
2019-01-08T03:36:47.725Z,975.3
2019-01-08T03:37:49.063Z,975.3
2019-01-08T03:38:50.398Z,975.1
2019-01-08T03:39:51.726Z,975.1
2019-01-08T03:40:52.988Z,975.1
2019-01-08T03:41:54.291Z,975.2
2019-01-08T03:42:55.563Z,975.1
2019-01-08T03:43:56.881Z,975.1
2019-01-08T03:44:58.148Z,975.2
2019-01-08T03:45:59.418Z,975.2
2019-01-08T03:47:00.723Z,975.2
2019-01-08T03:48:02.055Z,975.1
2019-01-08T03:49:03.393Z,974.9
2019-01-08T03:50:04.666Z,974.8
2019-01-08T03:51:05.946Z,975
2019-01-08T03:52:07.277Z,975
2019-01-08T03:53:08.551Z,974.9
2019-01-08T03:54:09.866Z,975
2019-01-08T03:55:11.147Z,974.9
2019-01-08T03:56:12.410Z,974.7
2019-01-08T03:57:13.703Z,974.8
2019-01-08T03:58:15.012Z,974.8
2019-01-08T03:59:16.647Z,975
2019-01-08T04:00:17.925Z,974.8
2019-01-08T04:01:19.208Z,974.8
2019-01-08T04:02:20.501Z,974.9
2019-01-08T04:03:21.816Z,974.9
2019-01-08T04:04:23.141Z,974.8
2019-01-08T04:05:24.426Z,974.8
2019-01-08T04:06:25.827Z,974.8
2019-01-08T04:07:27.151Z,974.8
2019-01-08T04:08:28.444Z,974.7
2019-01-08T04:09:29.949Z,974.7
2019-01-08T04:10:31.212Z,974.6
2019-01-08T04:11:32.474Z,974.5
2019-01-08T04:12:33.761Z,974.6
2019-01-08T04:13:35.045Z,974.6
2019-01-08T04:14:36.365Z,974.6
2019-01-08T04:15:37.645Z,974.5
2019-01-08T04:16:38.957Z,974.5
2019-01-08T04:17:40.232Z,974.5
2019-01-08T04:18:41.536Z,974.4
2019-01-08T04:19:42.878Z,974.4
2019-01-08T04:20:44.167Z,974.6
2019-01-08T04:21:45.462Z,974.3
2019-01-08T04:22:46.753Z,974.3
2019-01-08T04:23:48.048Z,974.3
2019-01-08T04:24:49.349Z,974.2
2019-01-08T04:25:50.627Z,974.3
2019-01-08T04:26:52.195Z,974.1
2019-01-08T04:27:53.825Z,974.2
2019-01-08T04:28:55.128Z,974.2
2019-01-08T04:29:56.468Z,973.8
2019-01-08T04:30:57.736Z,974.1
2019-01-08T04:31:59.038Z,974.1
2019-01-08T04:33:00.377Z,974.1
2019-01-08T04:34:01.666Z,974.2
2019-01-08T04:35:02.985Z,974.2
2019-01-08T04:36:04.274Z,974.1
2019-01-08T04:37:05.534Z,974.2
2019-01-08T04:38:06.801Z,974.2
2019-01-08T04:39:08.078Z,974
2019-01-08T04:40:09.365Z,974.1
2019-01-08T04:41:10.654Z,974
2019-01-08T04:42:11.937Z,974
2019-01-08T04:43:13.243Z,974
2019-01-08T04:44:14.564Z,974
2019-01-08T04:45:15.878Z,973.9
2019-01-08T04:46:17.194Z,973.9
2019-01-08T04:47:18.494Z,974
2019-01-08T04:48:19.806Z,973.9
2019-01-08T04:49:21.129Z,973.9
2019-01-08T04:50:22.454Z,973.7
2019-01-08T04:51:23.754Z,973.8
2019-01-08T04:52:25.038Z,973.7
2019-01-08T04:53:26.296Z,973.7
2019-01-08T04:54:27.610Z,973.6
2019-01-08T04:55:28.925Z,973.7
2019-01-08T04:56:30.263Z,973.8
2019-01-08T04:57:31.554Z,973.8
2019-01-08T04:58:32.849Z,973.7
2019-01-08T04:59:34.124Z,973.6
2019-01-08T05:00:35.444Z,973.6
2019-01-08T05:01:36.736Z,973.7
2019-01-08T05:02:38.077Z,973.6
2019-01-08T05:03:39.468Z,973.5
2019-01-08T05:04:40.800Z,973.5
2019-01-08T05:05:42.149Z,973.4
2019-01-08T05:06:43.438Z,973.5
2019-01-08T05:07:44.728Z,973.4
2019-01-08T05:08:48.754Z,973.5
2019-01-08T05:09:50.052Z,973.4
2019-01-08T05:10:51.374Z,973.4
2019-01-08T05:11:52.723Z,973.3
2019-01-08T05:12:54.016Z,973.4
2019-01-08T05:13:55.346Z,973.4
2019-01-08T05:14:56.749Z,973.2
2019-01-08T05:15:58.131Z,973
2019-01-08T05:16:59.430Z,973.2
2019-01-08T05:18:00.733Z,973.2
2019-01-08T05:19:02.017Z,973.1
2019-01-08T05:20:03.311Z,973
2019-01-08T05:21:04.653Z,973.2
2019-01-08T05:22:05.928Z,973.2
2019-01-08T05:23:07.213Z,973.3
2019-01-08T05:24:08.499Z,973.2
2019-01-08T05:25:09.788Z,973.1
2019-01-08T05:26:11.162Z,973.3
2019-01-08T05:27:12.425Z,973.2
2019-01-08T05:28:14.340Z,973.1
2019-01-08T05:29:15.637Z,973.1
2019-01-08T05:30:16.948Z,973.2
2019-01-08T05:31:18.279Z,973.1
2019-01-08T05:32:19.593Z,973
2019-01-08T05:33:20.881Z,973
2019-01-08T05:34:22.185Z,973.1
2019-01-08T05:35:23.480Z,973.1
2019-01-08T05:36:24.854Z,973.2
2019-01-08T05:37:26.182Z,973.2
2019-01-08T05:38:27.477Z,973
2019-01-08T05:39:28.761Z,972.9
2019-01-08T05:40:30.017Z,973
2019-01-08T05:41:31.334Z,972.9
2019-01-08T05:42:32.618Z,972.9
2019-01-08T05:43:33.948Z,972.9
2019-01-08T05:44:35.264Z,972.8
2019-01-08T05:45:36.544Z,972.7
2019-01-08T05:46:37.862Z,972.6
2019-01-08T05:47:39.140Z,972.5
2019-01-08T05:48:40.453Z,972.5
2019-01-08T05:49:41.736Z,972.6
2019-01-08T05:50:43.015Z,972.6
2019-01-08T05:51:44.652Z,972.5
2019-01-08T05:52:45.945Z,972.4
2019-01-08T05:53:47.234Z,972.5
2019-01-08T05:54:48.529Z,972.4
2019-01-08T05:55:49.812Z,972.6
2019-01-08T05:56:51.135Z,972.3
2019-01-08T05:57:52.418Z,972.7
2019-01-08T05:58:53.713Z,972.6
2019-01-08T05:59:54.998Z,972.8
2019-01-08T06:00:56.310Z,973
2019-01-08T06:01:57.644Z,972.9
2019-01-08T06:02:58.917Z,972.9
2019-01-08T06:04:00.228Z,973
2019-01-08T06:05:01.837Z,973
2019-01-08T06:06:05.898Z,973
2019-01-08T06:07:09.974Z,972.8
2019-01-08T06:08:13.639Z,972.9
2019-01-08T06:09:14.983Z,972.6
2019-01-08T06:10:16.302Z,972.6
2019-01-08T06:11:17.611Z,972.6
2019-01-08T06:12:18.919Z,972.5
2019-01-08T06:13:20.211Z,972.5
2019-01-08T06:14:21.491Z,972.4
2019-01-08T06:15:22.784Z,972.4
2019-01-08T06:16:24.106Z,972.3
2019-01-08T06:17:25.525Z,972.3
2019-01-08T06:18:26.793Z,972.2
2019-01-08T06:19:28.062Z,972.2
2019-01-08T06:20:29.345Z,972.4
2019-01-08T06:21:30.669Z,972.4
2019-01-08T06:22:32.011Z,972.4
2019-01-08T06:23:33.292Z,972.2
2019-01-08T06:24:34.578Z,972.3
2019-01-08T06:25:35.875Z,972.4
2019-01-08T06:26:39.942Z,972.3
2019-01-08T06:27:41.301Z,972.4
2019-01-08T06:28:42.607Z,972.4
2019-01-08T06:29:43.898Z,972.3
2019-01-08T06:30:50.488Z,972.4
2019-01-08T06:31:51.807Z,972.3
2019-01-08T06:32:53.145Z,972.3
2019-01-08T06:33:54.428Z,972.3
2019-01-08T06:34:55.749Z,972.3
2019-01-08T06:35:57.077Z,972.3
2019-01-08T06:36:58.418Z,972.3
2019-01-08T06:37:59.723Z,972.3
2019-01-08T06:39:00.981Z,972.3
2019-01-08T06:40:02.285Z,972.2
2019-01-08T06:41:03.698Z,972.2
2019-01-08T06:42:05.300Z,972.2
2019-01-08T06:43:06.797Z,972.2
2019-01-08T06:44:08.080Z,972.2
2019-01-08T06:45:09.385Z,972.1
2019-01-08T06:46:10.743Z,972.1
2019-01-08T06:47:12.035Z,972.2
2019-01-08T06:48:13.381Z,972.1
2019-01-08T06:49:14.690Z,972.1
2019-01-08T06:50:16.236Z,972
2019-01-08T06:51:17.514Z,972.1
2019-01-08T06:52:18.865Z,972.1
2019-01-08T06:53:20.197Z,971.9
2019-01-08T06:54:21.499Z,972.1
2019-01-08T06:55:22.776Z,972.1
2019-01-08T06:56:24.072Z,972
2019-01-08T06:57:25.381Z,971.9
2019-01-08T06:58:26.713Z,972
2019-01-08T06:59:29.545Z,971.9
2019-01-08T07:00:34.360Z,971.8
2019-01-08T07:01:35.666Z,971.8
2019-01-08T07:02:39.649Z,971.9
2019-01-08T07:03:41.781Z,971.8
2019-01-08T07:04:43.046Z,971.6
2019-01-08T07:05:44.339Z,971.8
2019-01-08T07:06:45.638Z,971.8
2019-01-08T07:07:46.933Z,971.8
2019-01-08T07:08:48.283Z,971.7
2019-01-08T07:09:49.627Z,971.8
2019-01-08T07:10:50.917Z,971.8
2019-01-08T07:11:52.296Z,971.7
2019-01-08T07:12:53.613Z,971.6
2019-01-08T07:13:54.954Z,971.5
2019-01-08T07:14:56.297Z,971.6
2019-01-08T07:15:57.622Z,971.4
2019-01-08T07:16:58.904Z,971.6
2019-01-08T07:18:00.186Z,971.6
2019-01-08T07:19:01.565Z,971.7
2019-01-08T07:20:02.880Z,971.7
2019-01-08T07:21:04.197Z,971.5
2019-01-08T07:22:05.717Z,971.6
2019-01-08T07:23:07.022Z,971.6
2019-01-08T07:24:08.430Z,971.7
2019-01-08T07:25:09.778Z,971.5
2019-01-08T07:26:11.090Z,971.7
2019-01-08T07:27:17.588Z,971.7
2019-01-08T07:28:21.363Z,971.7
2019-01-08T07:29:22.743Z,971.6
2019-01-08T07:30:24.050Z,971.7
2019-01-08T07:31:25.385Z,971.7
2019-01-08T07:32:27.004Z,971.6
2019-01-08T07:33:28.293Z,971.7
2019-01-08T07:34:29.641Z,971.6
2019-01-08T07:35:30.929Z,971.5
2019-01-08T07:36:32.214Z,971.7
2019-01-08T07:37:33.517Z,971.5
2019-01-08T07:38:35.204Z,971.5
2019-01-08T07:39:36.513Z,971.5
2019-01-08T07:40:37.772Z,971.6
2019-01-08T07:41:39.108Z,971.7
2019-01-08T07:42:40.455Z,971.6
2019-01-08T07:43:41.765Z,971.6
2019-01-08T07:44:43.077Z,971.6
2019-01-08T07:45:44.365Z,971.6
2019-01-08T07:46:46.316Z,971.5
2019-01-08T07:47:47.639Z,971.6
2019-01-08T07:48:48.964Z,971.5
2019-01-08T07:49:50.317Z,971.6
2019-01-08T07:50:51.755Z,971.6
2019-01-08T07:51:53.090Z,971.5
2019-01-08T07:52:54.399Z,971.5
2019-01-08T07:53:55.752Z,971.6
2019-01-08T07:54:57.079Z,971.5
2019-01-08T07:55:58.365Z,971.6
2019-01-08T07:56:59.691Z,971.6
2019-01-08T07:58:01.059Z,971.7
2019-01-08T07:59:02.346Z,971.6
2019-01-08T08:00:03.657Z,971.5
2019-01-08T08:01:04.954Z,971.5
2019-01-08T08:02:07.561Z,971.6
2019-01-08T08:03:08.890Z,971.5
2019-01-08T08:04:10.258Z,971.5
2019-01-08T08:05:11.647Z,971.5
2019-01-08T08:06:12.950Z,971.5
2019-01-08T08:07:14.261Z,971.4
2019-01-08T08:08:15.581Z,971.5
2019-01-08T08:09:16.973Z,971.5
2019-01-08T08:10:18.315Z,971.5
2019-01-08T08:11:19.842Z,971.5
2019-01-08T08:12:21.153Z,971.4
2019-01-08T08:13:22.419Z,971.3
2019-01-08T08:14:23.721Z,971.4
2019-01-08T08:15:25.114Z,971.5
2019-01-08T08:16:26.418Z,971.4
2019-01-08T08:17:27.731Z,971.3
2019-01-08T08:18:29.031Z,971.3
2019-01-08T08:19:30.339Z,971.3
2019-01-08T08:20:34.053Z,971.3
2019-01-08T08:21:35.772Z,971.3
2019-01-08T08:22:37.083Z,971.3
2019-01-08T08:23:38.366Z,971.2
2019-01-08T08:24:39.681Z,971.2
2019-01-08T08:25:41.110Z,971
2019-01-08T08:26:42.423Z,971.2
2019-01-08T08:27:43.738Z,971.3
2019-01-08T08:28:45.033Z,971.3
2019-01-08T08:29:46.340Z,971.3
2019-01-08T08:30:47.702Z,971
2019-01-08T08:31:49.017Z,971.2
2019-01-08T08:32:50.325Z,971.2
2019-01-08T08:33:51.641Z,971.3
2019-01-08T08:34:53.476Z,971.1
2019-01-08T08:35:55.107Z,971.1
2019-01-08T08:36:56.641Z,971.1
2019-01-08T08:38:00.081Z,971.2
2019-01-08T08:39:01.454Z,971.1
2019-01-08T08:40:05.521Z,970.8
2019-01-08T08:41:06.877Z,971.1
2019-01-08T08:42:11.665Z,971
2019-01-08T08:43:12.945Z,970.9
2019-01-08T08:44:14.312Z,970.9
2019-01-08T08:45:15.889Z,970.9
2019-01-08T08:46:17.238Z,971
2019-01-08T08:47:19.660Z,971
2019-01-08T08:48:20.985Z,970.9
2019-01-08T08:49:24.664Z,970.8
2019-01-08T08:50:25.992Z,970.9
2019-01-08T08:51:27.349Z,970.9
2019-01-08T08:52:28.674Z,970.8
2019-01-08T08:53:29.973Z,970.9
2019-01-08T08:54:34.215Z,970.9
2019-01-08T08:55:36.840Z,970.8
2019-01-08T08:56:38.172Z,970.9
2019-01-08T08:57:39.476Z,970.9
2019-01-08T08:58:40.763Z,970.8
2019-01-08T08:59:42.059Z,970.8
2019-01-08T09:00:43.869Z,970.8
2019-01-08T09:01:45.210Z,970.8
2019-01-08T09:02:49.283Z,970.8
2019-01-08T09:03:50.709Z,970.8
2019-01-08T09:04:52.250Z,970.8
2019-01-08T09:05:53.541Z,970.7
2019-01-08T09:06:54.929Z,970.8
2019-01-08T09:07:56.259Z,970.8
2019-01-08T09:08:57.570Z,970.8
2019-01-08T09:10:01.363Z,970.8
2019-01-08T09:11:02.656Z,970.9
2019-01-08T09:12:04.005Z,970.7
2019-01-08T09:13:05.342Z,970.7
2019-01-08T09:14:06.658Z,970.9
2019-01-08T09:15:07.996Z,970.8
2019-01-08T09:16:09.353Z,970.9
2019-01-08T09:17:10.726Z,970.7
2019-01-08T09:18:12.028Z,970.6
2019-01-08T09:19:13.348Z,970.6
2019-01-08T09:20:14.648Z,970.6
2019-01-08T09:21:16.200Z,970.5
2019-01-08T09:22:17.563Z,970.5
2019-01-08T09:23:18.973Z,970.6
2019-01-08T09:24:20.275Z,970.5
2019-01-08T09:25:21.574Z,970.6
2019-01-08T09:26:23.146Z,970.7
2019-01-08T09:27:24.639Z,970.5
2019-01-08T09:28:25.961Z,970.5
2019-01-08T09:29:27.340Z,970.5
2019-01-08T09:30:28.659Z,970.5
2019-01-08T09:31:29.954Z,970.4
2019-01-08T09:32:31.294Z,970.5
2019-01-08T09:33:33.144Z,970.5
2019-01-08T09:34:34.420Z,970.5
2019-01-08T09:35:35.737Z,970.5
2019-01-08T09:36:44.100Z,970.7
2019-01-08T09:37:45.467Z,970.6
2019-01-08T09:38:46.805Z,970.5
2019-01-08T09:39:48.124Z,970.4
2019-01-08T09:40:52.340Z,970.5
2019-01-08T09:41:53.646Z,970.5
2019-01-08T09:42:54.976Z,970.5
2019-01-08T09:43:56.730Z,970.5
2019-01-08T09:44:58.028Z,970.6
2019-01-08T09:45:59.345Z,970.5
2019-01-08T09:47:00.644Z,970.5
2019-01-08T09:48:02.013Z,970.4
2019-01-08T09:49:03.305Z,970.4
2019-01-08T09:50:04.584Z,970.4
2019-01-08T09:51:10.456Z,970.4
2019-01-08T09:52:14.373Z,970.5
2019-01-08T09:53:20.715Z,970.3
2019-01-08T09:54:22.256Z,970.4
2019-01-08T09:55:26.304Z,970.3
2019-01-08T09:56:27.665Z,970.3
2019-01-08T09:57:28.977Z,970.3
2019-01-08T09:58:30.369Z,970.1
2019-01-08T09:59:31.687Z,970.2
2019-01-08T10:00:33.009Z,970.1
2019-01-08T10:01:34.323Z,970.2
2019-01-08T10:02:35.609Z,970
2019-01-08T10:03:37.509Z,970.1
2019-01-08T10:04:38.851Z,970.1
2019-01-08T10:05:40.119Z,970
2019-01-08T10:06:41.429Z,970.1
2019-01-08T10:07:45.175Z,970
2019-01-08T10:08:46.517Z,970.1
2019-01-08T10:09:47.827Z,970
2019-01-08T10:10:49.162Z,970
2019-01-08T10:11:50.605Z,970
2019-01-08T10:12:51.949Z,970.1
2019-01-08T10:13:53.348Z,970
2019-01-08T10:14:54.687Z,969.9
2019-01-08T10:15:57.953Z,970
2019-01-08T10:17:16.415Z,970
2019-01-08T10:18:17.695Z,969.9
2019-01-08T10:19:19.154Z,969.9
2019-01-08T10:20:20.494Z,969.7
2019-01-08T10:21:21.990Z,969.7
2019-01-08T10:22:23.286Z,969.8
2019-01-08T10:23:25.077Z,969.8
2019-01-08T10:24:29.165Z,969.9
2019-01-08T10:25:30.491Z,969.7
2019-01-08T10:26:31.805Z,969.9
2019-01-08T10:27:33.628Z,970
2019-01-08T10:28:35.432Z,969.9
2019-01-08T10:29:36.769Z,969.8
2019-01-08T10:30:38.095Z,969.9
2019-01-08T10:31:39.397Z,969.7
2019-01-08T10:32:40.721Z,969.7
2019-01-08T10:33:44.756Z,969.7
2019-01-08T10:34:46.086Z,969.5
2019-01-08T10:35:47.390Z,969.8
2019-01-08T10:36:48.669Z,969.9
2019-01-08T10:37:49.964Z,969.8
2019-01-08T10:38:51.247Z,969.9
2019-01-08T10:39:53.856Z,969.6
2019-01-08T10:40:55.165Z,969.7
2019-01-08T10:41:57.754Z,969.6
2019-01-08T10:42:59.337Z,969.7
2019-01-08T10:44:00.639Z,969.6
2019-01-08T10:45:02.014Z,969.8
2019-01-08T10:46:03.341Z,969.9
2019-01-08T10:47:04.628Z,969.6
2019-01-08T10:48:05.962Z,969.6
2019-01-08T10:49:07.257Z,969.7
2019-01-08T10:50:08.663Z,969.5
2019-01-08T10:51:10.330Z,969.6
2019-01-08T10:52:13.306Z,969.6
2019-01-08T10:53:14.718Z,969.7
2019-01-08T10:54:18.759Z,969.5
2019-01-08T10:55:20.631Z,969.5
2019-01-08T10:56:21.977Z,969.5
2019-01-08T10:57:23.312Z,969.6
2019-01-08T10:58:28.790Z,969.6
2019-01-08T10:59:34.139Z,969.5
2019-01-08T11:00:39.532Z,969.5
2019-01-08T11:01:41.893Z,969.5
2019-01-08T11:02:43.283Z,969.6
2019-01-08T11:03:44.581Z,969.5
2019-01-08T11:04:45.912Z,969.5
2019-01-08T11:05:47.245Z,969.5
2019-01-08T11:06:48.570Z,969.6
2019-01-08T11:07:49.861Z,969.6
2019-01-08T11:08:51.169Z,969.5
2019-01-08T11:09:52.577Z,969.5
2019-01-08T11:10:53.934Z,969.4
2019-01-08T11:11:55.254Z,969.5
2019-01-08T11:12:56.553Z,969.5
2019-01-08T11:14:00.513Z,969.4
2019-01-08T11:15:01.833Z,969.3
2019-01-08T11:16:03.165Z,969.4
2019-01-08T11:17:04.453Z,969.3
2019-01-08T11:18:05.809Z,969.3
2019-01-08T11:19:07.113Z,969.3
2019-01-08T11:20:08.405Z,969.3
2019-01-08T11:21:09.739Z,969.3
2019-01-08T11:22:11.066Z,969.2
2019-01-08T11:23:12.364Z,969.2
2019-01-08T11:24:13.640Z,969.3
2019-01-08T11:25:14.907Z,969.2
2019-01-08T11:26:16.257Z,969.3
2019-01-08T11:27:17.559Z,969.2
2019-01-08T11:28:18.880Z,969.2
2019-01-08T11:29:23.121Z,969.2
2019-01-08T11:30:29.321Z,969.3
2019-01-08T11:31:30.673Z,969.3
2019-01-08T11:32:32.229Z,969.2
2019-01-08T11:33:35.006Z,969.2
2019-01-08T11:34:36.310Z,969.2
2019-01-08T11:35:42.943Z,969.2
2019-01-08T11:36:44.300Z,969.2
2019-01-08T11:37:45.596Z,969.2
2019-01-08T11:38:46.978Z,969.3
2019-01-08T11:39:48.286Z,969.2
2019-01-08T11:40:50.664Z,969.2
2019-01-08T11:41:52.014Z,969.2
2019-01-08T11:42:53.314Z,969.2
2019-01-08T11:43:54.630Z,969.1
2019-01-08T11:44:58.208Z,969.1
2019-01-08T11:45:59.592Z,969.1
2019-01-08T11:47:00.967Z,969.1
2019-01-08T11:48:05.083Z,969.2
2019-01-08T11:49:06.418Z,969.1
2019-01-08T11:50:07.696Z,969
2019-01-08T11:51:09.021Z,969.1
2019-01-08T11:52:12.188Z,969
2019-01-08T11:53:13.517Z,969.1
2019-01-08T11:54:14.839Z,969.1
2019-01-08T11:55:16.134Z,969
2019-01-08T11:56:17.429Z,969.1
2019-01-08T11:57:18.780Z,969.1
2019-01-08T11:58:20.552Z,969
2019-01-08T11:59:21.917Z,969.1
2019-01-08T12:00:23.299Z,969
2019-01-08T12:01:25.960Z,969
2019-01-08T12:02:27.307Z,969
2019-01-08T12:03:28.638Z,969
2019-01-08T12:04:29.973Z,969
2019-01-08T12:05:34.265Z,969
2019-01-08T12:06:35.556Z,969.1
2019-01-08T12:07:36.919Z,969
2019-01-08T12:08:38.257Z,969
2019-01-08T12:09:39.557Z,968.9
2019-01-08T12:10:40.875Z,968.9
2019-01-08T12:11:42.232Z,968.9
2019-01-08T12:12:43.605Z,968.9
2019-01-08T12:13:47.174Z,968.9
2019-01-08T12:14:48.493Z,968.9
2019-01-08T12:15:49.830Z,968.9
2019-01-08T12:16:53.684Z,968.9
2019-01-08T12:17:55.334Z,968.9
2019-01-08T12:18:56.657Z,968.8
2019-01-08T12:19:57.996Z,968.9
2019-01-08T12:20:59.413Z,968.8
2019-01-08T12:22:00.865Z,968.8
2019-01-08T12:23:02.204Z,968.8
2019-01-08T12:24:03.549Z,968.8
2019-01-08T12:25:05.148Z,968.8
2019-01-08T12:26:09.686Z,968.8
2019-01-08T12:27:10.962Z,968.8
2019-01-08T12:28:12.357Z,968.7
2019-01-08T12:29:13.889Z,968.7
2019-01-08T12:30:15.322Z,968.8
2019-01-08T12:31:16.627Z,968.8
2019-01-08T12:32:17.963Z,968.8
2019-01-08T12:33:19.273Z,968.8
2019-01-08T12:34:21.133Z,968.9
2019-01-08T12:35:22.438Z,968.9
2019-01-08T12:36:23.749Z,968.7
2019-01-08T12:37:25.038Z,968.8
2019-01-08T12:38:26.346Z,968.8
2019-01-08T12:39:29.028Z,968.7
2019-01-08T12:40:30.318Z,968.9
2019-01-08T12:41:32.826Z,968.8
2019-01-08T12:42:34.132Z,968.9
2019-01-08T12:43:36.529Z,969
2019-01-08T12:44:37.886Z,968.9
2019-01-08T12:45:39.193Z,968.9
2019-01-08T12:46:40.516Z,969
2019-01-08T12:47:41.824Z,969.1
2019-01-08T12:48:47.746Z,969.1
2019-01-08T12:49:49.094Z,969.2
2019-01-08T12:50:50.424Z,969.3
2019-01-08T12:51:51.745Z,969.1
2019-01-08T12:52:54.725Z,969.2
2019-01-08T12:53:56.103Z,969.2
2019-01-08T12:54:57.456Z,969.2
2019-01-08T12:55:58.753Z,969.1
2019-01-08T12:57:00.039Z,969.1
2019-01-08T12:58:01.385Z,969.2
2019-01-08T12:59:02.753Z,969.2
2019-01-08T13:00:04.092Z,969.2
2019-01-08T13:01:05.410Z,969.2
2019-01-08T13:02:15.168Z,969.1
2019-01-08T13:03:16.534Z,969.1
2019-01-08T13:04:17.973Z,968.9
2019-01-08T13:05:19.317Z,969
2019-01-08T13:06:20.648Z,969.2
2019-01-08T13:07:21.988Z,969
2019-01-08T13:08:23.301Z,969
2019-01-08T13:09:24.677Z,969
2019-01-08T13:10:26.192Z,969.1
2019-01-08T13:11:28.803Z,969
2019-01-08T13:12:38.162Z,969.2
2019-01-08T13:13:39.461Z,969.2
2019-01-08T13:14:40.869Z,969
2019-01-08T13:15:42.238Z,969.2
2019-01-08T13:16:45.953Z,969.2
2019-01-08T13:17:49.580Z,969.3